createdAt,value
2018-11-23T00:00:35.375Z,66.95
2018-11-23T00:03:02.189Z,64.90
2018-11-23T00:05:28.789Z,62.95
2018-11-23T00:07:57.829Z,74.77
2018-11-23T00:10:26.892Z,67.15
2018-11-23T00:12:54.438Z,64.97
2018-11-23T00:15:22.168Z,67.00
2018-11-23T00:17:48.788Z,68.30
2018-11-23T00:20:16.684Z,67.05
2018-11-23T00:22:43.742Z,66.20
2018-11-23T00:25:12.737Z,67.92
2018-11-23T00:27:40.570Z,69.47
2018-11-23T00:30:12.497Z,68.52
2018-11-23T00:32:39.932Z,70.05
2018-11-23T00:35:08.018Z,70.20
2018-11-23T00:37:36.070Z,71.97
2018-11-23T00:40:02.640Z,66.60
2018-11-23T00:42:29.246Z,72.85
2018-11-23T00:44:55.811Z,67.37
2018-11-23T00:47:24.342Z,71.28
2018-11-23T00:49:50.921Z,71.60
2018-11-23T00:52:18.827Z,72.25
2018-11-23T00:54:45.388Z,69.32
2018-11-23T00:57:12.377Z,70.67
2018-11-23T00:59:39.066Z,72.27
2018-11-23T01:02:07.196Z,74.62
2018-11-23T01:04:35.243Z,73.92
2018-11-23T01:07:02.295Z,73.83
2018-11-23T01:09:30.063Z,73.33
2018-11-23T01:11:57.604Z,77.37
2018-11-23T01:14:25.640Z,74.97
2018-11-23T01:16:52.214Z,71.75
2018-11-23T01:19:19.842Z,75.32
2018-11-23T01:21:48.475Z,77.12
2018-11-23T01:24:16.915Z,75.15
2018-11-23T01:26:43.476Z,73.65
2018-11-23T01:29:10.190Z,78.57
2018-11-23T01:31:37.929Z,77.58
2018-11-23T01:34:04.608Z,75.92
2018-11-23T01:36:31.192Z,78.42
2018-11-23T01:38:57.810Z,74.20
2018-11-23T01:41:24.830Z,76.90
2018-11-23T01:43:51.341Z,77.50
2018-11-23T01:46:18.671Z,73.70
2018-11-23T01:48:45.281Z,84.28
2018-11-23T01:51:13.011Z,80.57
2018-11-23T01:53:39.609Z,80.12
2018-11-23T01:56:07.474Z,80.97
2018-11-23T01:58:34.065Z,77.92
2018-11-23T02:01:00.733Z,82.72
2018-11-23T02:03:27.559Z,82.88
2018-11-23T02:05:54.153Z,77.53
2018-11-23T02:08:20.745Z,79.47
2018-11-23T02:10:47.371Z,78.80
2018-11-23T02:13:14.208Z,83.45
2018-11-23T02:15:41.572Z,81.15
2018-11-23T02:18:08.159Z,83.30
2018-11-23T02:20:34.797Z,72.27
2018-11-23T02:23:01.362Z,73.85
2018-11-23T02:25:27.980Z,72.92
2018-11-23T02:27:54.570Z,73.20
2018-11-23T02:30:22.524Z,71.57
2018-11-23T02:32:49.127Z,78.22
2018-11-23T02:35:16.100Z,76.40
2018-11-23T02:37:42.704Z,75.78
2018-11-23T02:40:10.710Z,67.42
2018-11-23T02:42:37.643Z,74.72
2018-11-23T02:45:06.131Z,71.85
2018-11-23T02:47:32.718Z,70.57
2018-11-23T02:49:59.328Z,77.37
2018-11-23T02:52:25.902Z,74.30
2018-11-23T02:54:52.499Z,76.57
2018-11-23T02:57:19.105Z,74.77
2018-11-23T02:59:45.707Z,72.60
2018-11-23T03:02:12.297Z,74.17
2018-11-23T03:04:38.904Z,74.10
2018-11-23T03:07:05.487Z,76.10
2018-11-23T03:09:32.118Z,71.40
2018-11-23T03:11:58.695Z,73.42
2018-11-23T03:14:25.297Z,74.17
2018-11-23T03:16:51.884Z,75.78
2018-11-23T03:19:18.480Z,70.87
2018-11-23T03:21:45.104Z,72.50
2018-11-23T03:24:11.691Z,72.65
2018-11-23T03:26:38.287Z,70.05
2018-11-23T03:29:04.943Z,73.40
2018-11-23T03:31:31.546Z,75.00
2018-11-23T03:33:58.146Z,75.28
2018-11-23T03:36:24.771Z,73.10
2018-11-23T03:38:51.687Z,74.00
2018-11-23T03:41:18.284Z,70.17
2018-11-23T03:43:44.959Z,68.87
2018-11-23T03:46:11.580Z,67.30
2018-11-23T03:48:38.153Z,71.53
2018-11-23T03:51:04.825Z,69.35
2018-11-23T03:53:31.417Z,65.45
2018-11-23T03:55:58.025Z,65.78
2018-11-23T03:58:24.610Z,69.77
2018-11-23T04:00:51.226Z,73.62
2018-11-23T04:03:17.806Z,68.05
2018-11-23T04:05:44.409Z,69.72
2018-11-23T04:08:10.977Z,74.72
2018-11-23T04:10:37.575Z,73.07
2018-11-23T04:13:04.417Z,71.25
2018-11-23T04:15:31.015Z,76.75
2018-11-23T04:17:57.616Z,73.80
2018-11-23T04:20:24.207Z,70.97
2018-11-23T04:22:50.785Z,75.12
2018-11-23T04:25:17.396Z,73.57
2018-11-23T04:27:44.018Z,71.92
2018-11-23T04:30:12.685Z,72.37
2018-11-23T04:32:39.275Z,76.77
2018-11-23T04:35:07.554Z,70.95
2018-11-23T04:37:34.122Z,70.60
2018-11-23T04:40:00.715Z,77.00
2018-11-23T04:42:27.286Z,76.40
2018-11-23T04:44:53.872Z,75.67
2018-11-23T04:47:20.455Z,74.85
2018-11-23T04:49:47.036Z,74.03
2018-11-23T04:52:13.625Z,76.37
2018-11-23T04:54:40.193Z,78.50
2018-11-23T04:57:06.798Z,71.45
2018-11-23T04:59:33.377Z,72.30
2018-11-23T05:01:59.957Z,75.80
2018-11-23T05:04:26.542Z,78.45
2018-11-23T05:06:53.120Z,81.92
2018-11-23T05:09:19.688Z,74.17
2018-11-23T05:11:46.299Z,78.87
2018-11-23T05:14:12.873Z,79.72
2018-11-23T05:16:39.474Z,74.65
2018-11-23T05:19:06.098Z,74.50
2018-11-23T05:21:32.685Z,79.62
2018-11-23T05:23:59.265Z,73.62
2018-11-23T05:26:25.877Z,79.12
2018-11-23T05:28:52.457Z,82.20
2018-11-23T05:31:19.045Z,71.77
2018-11-23T05:33:45.606Z,71.17
2018-11-23T05:36:12.217Z,80.42
2018-11-23T05:38:38.796Z,80.07
2018-11-23T05:41:05.378Z,79.97
2018-11-23T05:43:31.954Z,78.80
2018-11-23T05:45:58.541Z,87.22
2018-11-23T05:48:26.960Z,84.28
2018-11-23T05:50:51.768Z,76.33
2018-11-23T05:53:18.351Z,83.72
2018-11-23T05:55:44.924Z,83.40
2018-11-23T05:58:11.575Z,83.10
2018-11-23T06:00:38.133Z,84.17
2018-11-23T06:03:04.724Z,79.25
2018-11-23T06:05:31.288Z,76.60
2018-11-23T06:07:57.908Z,86.47
2018-11-23T06:10:24.504Z,85.83
2018-11-23T06:12:51.140Z,80.62
2018-11-23T06:15:18.920Z,83.75
2018-11-23T06:17:46.057Z,79.47
2018-11-23T06:20:14.727Z,84.77
2018-11-23T06:22:41.678Z,89.70
2018-11-23T06:25:11.087Z,91.50
2018-11-23T06:27:37.952Z,83.25
2018-11-23T06:30:05.986Z,87.78
2018-11-23T06:33:12.101Z,87.30
2018-11-23T06:35:38.663Z,82.00
2018-11-23T06:38:05.243Z,90.87
2018-11-23T06:40:31.813Z,88.62
2018-11-23T06:42:58.406Z,91.90
2018-11-23T06:45:24.982Z,90.85
2018-11-23T06:47:51.545Z,88.82
2018-11-23T06:50:18.130Z,88.47
2018-11-23T06:52:44.718Z,88.75
2018-11-23T06:55:11.637Z,91.60
2018-11-23T06:57:38.460Z,91.32
2018-11-23T07:00:26.451Z,86.70
2018-11-23T07:02:58.900Z,80.55
2018-11-23T07:05:19.610Z,85.17
2018-11-23T07:07:46.175Z,89.42
2018-11-23T07:10:12.777Z,80.50
2018-11-23T07:12:39.896Z,81.97
2018-11-23T07:15:10.453Z,81.32
2018-11-23T07:17:37.281Z,78.87
2018-11-23T07:20:05.373Z,74.07
2018-11-23T07:22:31.935Z,76.85
2018-11-23T07:24:58.533Z,78.05
2018-11-23T07:27:25.101Z,80.83
2018-11-23T07:29:51.689Z,78.70
2018-11-23T07:32:18.261Z,76.95
2018-11-23T07:34:44.862Z,75.28
2018-11-23T07:37:11.460Z,88.15
2018-11-23T07:40:18.373Z,95.97
2018-11-23T07:42:44.936Z,81.60
2018-11-23T07:45:11.551Z,77.72
2018-11-23T07:47:38.114Z,85.07
2018-11-23T07:50:06.410Z,78.10
2018-11-23T07:52:32.976Z,83.85
2018-11-23T07:54:59.560Z,82.27
2018-11-23T07:57:26.149Z,78.57
2018-11-23T07:59:52.748Z,80.85
2018-11-23T08:02:19.316Z,83.75
2018-11-23T08:04:45.949Z,79.75
2018-11-23T08:07:12.535Z,78.40
2018-11-23T08:09:39.933Z,78.05
2018-11-23T08:12:06.796Z,79.00
2018-11-23T08:14:33.389Z,76.22
2018-11-23T08:16:59.993Z,77.42
2018-11-23T08:19:26.554Z,81.65
2018-11-23T08:21:53.144Z,80.67
2018-11-23T08:24:19.725Z,81.08
2018-11-23T08:26:46.328Z,79.97
2018-11-23T08:29:12.898Z,76.37
2018-11-23T08:31:39.707Z,82.67
2018-11-23T08:34:06.539Z,84.58
2018-11-23T08:36:33.150Z,85.60
2018-11-23T08:39:04.700Z,90.85
2018-11-23T08:41:26.314Z,76.77
2018-11-23T08:43:52.890Z,83.80
2018-11-23T08:46:19.537Z,83.00
2018-11-23T08:48:46.125Z,83.00
2018-11-23T08:51:13.030Z,79.75
2018-11-23T08:53:39.592Z,84.70
2018-11-23T08:56:06.172Z,92.57
2018-11-23T08:58:32.736Z,89.90
2018-11-23T09:00:59.330Z,94.07
2018-11-23T09:03:25.914Z,92.12
2018-11-23T09:05:52.489Z,90.28
2018-11-23T09:08:19.072Z,91.97
2018-11-23T09:10:45.669Z,90.50
2018-11-23T09:13:12.270Z,90.77
2018-11-23T09:15:38.839Z,91.60
2018-11-23T09:18:05.440Z,101.25
2018-11-23T09:20:32.022Z,91.08
2018-11-23T09:22:58.619Z,86.97
2018-11-23T09:25:25.184Z,95.38
2018-11-23T09:27:51.849Z,84.92
2018-11-23T09:30:19.876Z,88.30
2018-11-23T09:32:47.147Z,82.60
2018-11-23T09:35:13.743Z,84.45
2018-11-23T09:37:40.723Z,79.62
2018-11-23T09:40:09.503Z,78.67
2018-11-23T09:42:36.272Z,88.95
2018-11-23T09:45:03.167Z,84.83
2018-11-23T09:47:29.766Z,86.90
2018-11-23T09:49:56.356Z,80.80
2018-11-23T09:52:22.952Z,81.92
2018-11-23T09:54:49.645Z,88.25
2018-11-23T09:57:16.226Z,79.80
2018-11-23T09:59:42.833Z,85.25
2018-11-23T10:02:09.561Z,83.30
2018-11-23T10:04:36.225Z,74.00
2018-11-23T10:07:02.937Z,69.15
2018-11-23T10:09:29.564Z,78.78
2018-11-23T10:11:56.166Z,76.33
2018-11-23T10:14:22.761Z,76.95
2018-11-23T10:16:49.361Z,74.45
2018-11-23T10:19:35.582Z,72.55
2018-11-23T10:22:02.185Z,70.97
2018-11-23T10:24:28.790Z,75.40
2018-11-23T10:26:55.351Z,67.17
2018-11-23T10:29:22.272Z,78.12
2018-11-23T10:31:48.837Z,65.72
2018-11-23T10:34:15.981Z,71.82
2018-11-23T10:36:42.565Z,75.57
2018-11-23T10:39:09.158Z,74.42
2018-11-23T10:41:35.749Z,71.65
2018-11-23T10:44:02.338Z,72.32
2018-11-23T10:46:28.921Z,67.70
2018-11-23T10:48:55.520Z,61.53
2018-11-23T10:51:22.110Z,63.05
2018-11-23T10:53:48.678Z,68.05
2018-11-23T10:56:15.276Z,62.67
2018-11-23T10:58:41.883Z,63.68
2018-11-23T11:01:28.072Z,62.60
2018-11-23T11:04:14.263Z,66.45
2018-11-23T11:07:00.480Z,58.40
2018-11-23T11:09:27.064Z,59.42
2018-11-23T11:11:53.668Z,56.95
2018-11-23T11:14:20.242Z,63.40
2018-11-23T11:16:46.832Z,59.00
2018-11-23T11:19:13.423Z,58.75
2018-11-23T11:21:40.011Z,67.60
2018-11-23T11:24:06.582Z,62.00
2018-11-23T11:26:33.206Z,61.28
2018-11-23T11:28:59.799Z,65.92
2018-11-23T11:31:26.640Z,61.95
2018-11-23T11:33:53.220Z,66.42
2018-11-23T11:36:19.807Z,66.00
2018-11-23T11:38:46.389Z,62.62
2018-11-23T11:41:13.077Z,65.10
2018-11-23T11:43:39.822Z,70.80
2018-11-23T11:46:06.777Z,61.45
2018-11-23T11:48:33.684Z,64.53
2018-11-23T11:51:00.293Z,63.75
2018-11-23T11:53:27.070Z,65.37
2018-11-23T11:55:53.706Z,60.52
2018-11-23T11:58:20.437Z,70.25
2018-11-23T12:00:47.703Z,63.48
2018-11-23T12:03:14.288Z,65.00
2018-11-23T12:05:40.910Z,70.55
2018-11-23T12:08:07.519Z,58.17
2018-11-23T12:10:34.159Z,64.17
2018-11-23T12:13:00.781Z,63.55
2018-11-23T12:15:27.542Z,65.20
2018-11-23T12:17:54.144Z,57.50
2018-11-23T12:20:22.240Z,60.65
2018-11-23T12:22:49.187Z,62.53
2018-11-23T12:25:16.087Z,66.22
2018-11-23T12:27:42.682Z,67.62
2018-11-23T12:30:11.215Z,64.55
2018-11-23T12:32:37.796Z,64.35
2018-11-23T12:35:05.901Z,64.85
2018-11-23T12:37:32.467Z,63.65
2018-11-23T12:39:59.979Z,60.40
2018-11-23T12:42:26.557Z,64.40
2018-11-23T12:44:53.173Z,64.65
2018-11-23T12:47:19.860Z,62.78
2018-11-23T12:49:46.482Z,62.80
2018-11-23T12:52:13.093Z,59.75
2018-11-23T12:54:39.681Z,63.83
2018-11-23T12:57:07.024Z,64.25
2018-11-23T12:59:33.608Z,58.40
2018-11-23T13:02:00.655Z,62.38
2018-11-23T13:04:27.279Z,65.42
2018-11-23T13:06:53.931Z,60.33
2018-11-23T13:09:20.610Z,68.25
2018-11-23T13:11:47.200Z,62.25
2018-11-23T13:14:13.783Z,66.00
2018-11-23T13:16:40.574Z,60.75
2018-11-23T13:19:07.166Z,63.85
2018-11-23T13:21:33.746Z,62.60
2018-11-23T13:24:00.857Z,64.10
2018-11-23T13:26:27.433Z,61.83
2018-11-23T13:28:54.250Z,64.45
2018-11-23T13:31:20.943Z,60.83
2018-11-23T13:33:47.517Z,61.85
2018-11-23T13:36:14.107Z,63.45
2018-11-23T13:38:40.682Z,63.23
2018-11-23T13:41:07.290Z,61.68
2018-11-23T13:43:33.873Z,59.88
2018-11-23T13:46:04.425Z,61.37
2018-11-23T13:48:31.116Z,64.70
2018-11-23T13:50:57.977Z,64.27
2018-11-23T13:53:24.595Z,58.30
2018-11-23T13:55:51.591Z,62.03
2018-11-23T13:58:18.205Z,59.45
2018-11-23T14:00:44.925Z,64.17
2018-11-23T14:03:11.569Z,63.55
2018-11-23T14:05:38.167Z,62.30
2018-11-23T14:08:04.949Z,61.95
2018-11-23T14:10:31.723Z,66.10
2018-11-23T14:12:58.369Z,61.15
2018-11-23T14:15:26.356Z,58.58
2018-11-23T14:17:54.016Z,59.15
2018-11-23T14:20:21.577Z,64.70
2018-11-23T14:22:48.164Z,62.20
2018-11-23T14:25:16.078Z,62.85
2018-11-23T14:27:43.145Z,61.90
2018-11-23T14:30:31.566Z,67.37
2018-11-23T14:32:58.639Z,68.30
2018-11-23T14:35:29.262Z,57.55
2018-11-23T14:37:56.673Z,61.80
2018-11-23T14:40:23.245Z,62.85
2018-11-23T14:42:50.216Z,65.25
2018-11-23T14:45:19.194Z,61.48
2018-11-23T14:47:46.363Z,64.05
2018-11-23T14:50:15.352Z,60.55
2018-11-23T14:52:43.128Z,67.20
2018-11-23T14:55:09.706Z,58.33
2018-11-23T14:57:37.123Z,59.48
2018-11-23T15:00:08.436Z,58.00
2018-11-23T15:02:35.005Z,59.80
2018-11-23T15:05:01.570Z,64.85
2018-11-23T15:07:28.190Z,59.35
2018-11-23T15:09:55.007Z,60.00
2018-11-23T15:12:21.601Z,61.05
2018-11-23T15:14:48.214Z,60.20
2018-11-23T15:17:14.807Z,63.70
2018-11-23T15:19:41.405Z,64.55
2018-11-23T15:22:07.984Z,62.78
2018-11-23T15:24:34.593Z,64.65
2018-11-23T15:27:01.176Z,68.07
2018-11-23T15:29:27.768Z,63.42
2018-11-23T15:31:54.341Z,65.00
2018-11-23T15:34:20.977Z,61.73
2018-11-23T15:37:08.098Z,65.17
2018-11-23T15:39:34.630Z,62.10
2018-11-23T15:42:02.648Z,65.20
2018-11-23T15:44:29.467Z,69.47
2018-11-23T15:46:56.085Z,67.45
2018-11-23T15:49:24.437Z,69.62
2018-11-23T15:51:52.538Z,69.72
2018-11-23T15:54:20.270Z,63.63
2018-11-23T15:56:54.875Z,64.85
2018-11-23T15:59:22.250Z,68.33
2018-11-23T16:01:49.047Z,70.75
2018-11-23T16:04:16.874Z,68.10
2018-11-23T16:06:43.461Z,62.95
2018-11-23T16:09:11.771Z,69.58
2018-11-23T16:11:38.413Z,64.07
2018-11-23T16:14:05.113Z,70.72
2018-11-23T16:16:31.711Z,72.40
2018-11-23T16:18:58.314Z,67.62
2018-11-23T16:21:24.894Z,68.52
2018-11-23T16:23:51.489Z,65.42
2018-11-23T16:26:18.065Z,66.67
2018-11-23T16:28:44.644Z,69.82
2018-11-23T16:31:11.213Z,73.92
2018-11-23T16:33:37.822Z,70.65
2018-11-23T16:36:04.405Z,72.67
2018-11-23T16:38:30.953Z,109.78
2018-11-23T16:40:57.537Z,71.37
2018-11-23T16:43:24.185Z,71.75
2018-11-23T16:45:50.773Z,72.03
2018-11-23T16:48:18.085Z,68.30
2018-11-23T16:50:44.956Z,69.47
2018-11-23T16:53:11.584Z,72.72
2018-11-23T16:55:38.181Z,72.25
2018-11-23T16:58:24.388Z,70.75
2018-11-23T17:00:50.984Z,68.35
2018-11-23T17:03:19.128Z,70.12
2018-11-23T17:05:55.637Z,78.05
2018-11-23T17:08:22.208Z,77.45
2018-11-23T17:10:48.786Z,73.97
2018-11-23T17:13:15.368Z,72.90
2018-11-23T17:15:41.936Z,73.75
2018-11-23T17:18:08.621Z,80.55
2018-11-23T17:20:35.760Z,76.05
2018-11-23T17:23:03.317Z,78.62
2018-11-23T17:25:30.470Z,78.25
2018-11-23T17:27:58.321Z,79.47
2018-11-23T17:30:26.142Z,81.42
2018-11-23T17:32:52.935Z,80.83
2018-11-23T17:35:19.618Z,84.35
2018-11-23T17:37:46.222Z,91.10
2018-11-23T17:40:14.113Z,85.77
2018-11-23T17:42:40.700Z,91.60
2018-11-23T17:45:12.043Z,85.32
2018-11-23T17:47:38.684Z,84.92
2018-11-23T17:50:07.698Z,90.75
2018-11-23T17:52:34.273Z,84.90
2018-11-23T17:55:00.858Z,90.17
2018-11-23T17:57:27.446Z,90.80
2018-11-23T17:59:54.019Z,93.50
2018-11-23T18:02:22.769Z,91.78
2018-11-23T18:04:50.012Z,85.50
2018-11-23T18:07:16.700Z,85.95
2018-11-23T18:09:43.428Z,87.65
2018-11-23T18:12:10.033Z,89.30
2018-11-23T18:14:36.582Z,84.80
2018-11-23T18:17:03.266Z,88.50
2018-11-23T18:19:30.008Z,86.25
2018-11-23T18:21:56.618Z,86.17
2018-11-23T18:24:23.187Z,87.85
2018-11-23T18:26:50.776Z,86.85
2018-11-23T18:29:17.520Z,89.25
2018-11-23T18:31:44.082Z,83.55
2018-11-23T18:34:10.698Z,87.27
2018-11-23T18:36:37.318Z,85.42
2018-11-23T18:39:06.731Z,89.92
2018-11-23T18:41:33.306Z,91.60
2018-11-23T18:43:59.951Z,80.60
2018-11-23T18:46:26.515Z,87.05
2018-11-23T18:48:53.117Z,83.82
2018-11-23T18:51:19.695Z,106.45
2018-11-23T18:53:46.304Z,117.30
2018-11-23T18:56:12.867Z,88.82
2018-11-23T18:58:39.467Z,97.55
2018-11-23T19:01:06.055Z,96.57
2018-11-23T19:03:32.658Z,95.85
2018-11-23T19:05:59.218Z,89.45
2018-11-23T19:08:25.819Z,88.22
2018-11-23T19:10:52.433Z,89.15
2018-11-23T19:13:19.050Z,93.22
2018-11-23T19:15:45.590Z,92.37
2018-11-23T19:18:12.416Z,90.15
2018-11-23T19:20:38.992Z,91.28
2018-11-23T19:23:05.629Z,85.07
2018-11-23T19:25:32.206Z,87.70
2018-11-23T19:27:58.808Z,91.65
2018-11-23T19:30:28.516Z,83.75
2018-11-23T19:32:51.964Z,86.82
2018-11-23T19:35:18.535Z,86.57
2018-11-23T19:37:45.127Z,87.67
2018-11-23T19:40:12.623Z,83.87
2018-11-23T19:42:39.387Z,80.62
2018-11-23T19:45:15.424Z,87.62
2018-11-23T19:47:42.034Z,85.22
2018-11-23T19:50:12.636Z,84.37
2018-11-23T19:52:39.390Z,84.83
2018-11-23T19:55:10.564Z,80.62
2018-11-23T19:57:37.134Z,93.40
2018-11-23T20:00:25.934Z,85.95
2018-11-23T20:02:52.607Z,83.10
2018-11-23T20:05:19.232Z,89.60
2018-11-23T20:07:47.035Z,84.40
2018-11-23T20:10:17.688Z,84.70
2018-11-23T20:12:45.017Z,86.80
2018-11-23T20:15:15.865Z,91.28
2018-11-23T20:17:42.434Z,89.85
2018-11-23T20:20:10.280Z,86.08
2018-11-23T20:22:36.849Z,82.40
2018-11-23T20:25:05.523Z,83.80
2018-11-23T20:27:32.106Z,82.02
2018-11-23T20:29:58.706Z,85.17
2018-11-23T20:32:25.287Z,89.03
2018-11-23T20:34:51.887Z,83.97
2018-11-23T20:37:18.722Z,81.90
2018-11-23T20:39:56.151Z,84.17
2018-11-23T20:42:28.287Z,82.00
2018-11-23T20:44:57.864Z,85.30
2018-11-23T20:47:24.881Z,84.05
2018-11-23T20:49:51.791Z,81.95
2018-11-23T20:52:18.854Z,89.20
2018-11-23T20:54:45.457Z,84.95
2018-11-23T20:57:12.031Z,90.07
2018-11-23T20:59:39.130Z,86.32
2018-11-23T21:02:05.213Z,82.88
2018-11-23T21:04:31.795Z,78.78
2018-11-23T21:06:58.396Z,72.92
2018-11-23T21:09:30.998Z,78.05
2018-11-23T21:11:51.563Z,80.05
2018-11-23T21:14:18.159Z,91.17
2018-11-23T21:16:44.729Z,109.67
2018-11-23T21:19:11.309Z,90.00
2018-11-23T21:21:37.883Z,95.28
2018-11-23T21:24:04.530Z,86.80
2018-11-23T21:26:31.127Z,82.42
2018-11-23T21:28:57.688Z,86.47
2018-11-23T21:31:24.316Z,97.37
2018-11-23T21:33:50.881Z,89.77
2018-11-23T21:36:17.479Z,83.22
2018-11-23T21:38:44.071Z,85.30
2018-11-23T21:41:10.681Z,87.82
2018-11-23T21:43:37.259Z,85.40
2018-11-23T21:46:03.877Z,83.85
2018-11-23T21:48:30.461Z,83.78
2018-11-23T21:50:57.055Z,87.02
2018-11-23T21:53:23.636Z,85.80
2018-11-23T21:55:50.214Z,89.20
2018-11-23T21:58:16.785Z,92.20
2018-11-23T22:00:43.371Z,90.53
2018-11-23T22:03:09.942Z,90.47
2018-11-23T22:05:36.529Z,89.37
2018-11-23T22:08:03.102Z,88.87
2018-11-23T22:10:29.694Z,91.90
2018-11-23T22:12:56.247Z,97.75
2018-11-23T22:15:23.658Z,95.35
2018-11-23T22:17:51.186Z,102.02
2018-11-23T22:20:37.389Z,99.30
2018-11-23T22:23:03.969Z,88.72
2018-11-23T22:25:30.926Z,91.50
2018-11-23T22:27:57.464Z,88.00
2018-11-23T22:30:47.269Z,93.55
2018-11-23T22:33:13.843Z,95.22
2018-11-23T22:35:40.430Z,93.33
2018-11-23T22:38:07.008Z,86.00
2018-11-23T22:40:33.607Z,90.35
2018-11-23T22:43:00.189Z,91.72
2018-11-23T22:45:26.772Z,97.78
2018-11-23T22:47:53.356Z,95.32
2018-11-23T22:50:21.042Z,89.32
2018-11-23T22:52:47.918Z,98.50
2018-11-23T22:55:14.806Z,98.25
2018-11-23T22:57:41.407Z,89.10
2018-11-23T23:03:19.668Z,89.07
2018-11-23T23:05:46.270Z,90.85
2018-11-23T23:08:12.838Z,86.42
2018-11-23T23:10:39.451Z,95.87
2018-11-23T23:13:06.031Z,80.90
2018-11-23T23:15:32.601Z,95.72
2018-11-23T23:17:59.194Z,96.72
2018-11-23T23:20:25.769Z,94.58
2018-11-23T23:22:52.363Z,89.62
2018-11-23T23:25:18.927Z,99.00
2018-11-23T23:27:45.519Z,93.03
2018-11-23T23:30:13.238Z,90.87
2018-11-23T23:32:39.824Z,98.15
2018-11-23T23:35:07.562Z,96.75
2018-11-23T23:37:34.183Z,91.05
2018-11-23T23:40:00.721Z,93.50
2018-11-23T23:42:27.304Z,90.57
2018-11-23T23:44:53.869Z,86.15
2018-11-23T23:47:20.481Z,85.00
2018-11-23T23:49:47.074Z,98.40
2018-11-23T23:52:13.661Z,96.33
2018-11-23T23:54:40.231Z,108.17
2018-11-23T23:57:06.847Z,102.17
2018-11-23T23:59:33.421Z,99.07
